createdAt,value
2018-11-07T00:05:02.265Z,99654.17
2018-11-07T00:10:07.630Z,99656.75
2018-11-07T00:15:14.315Z,99655.38
2018-11-07T00:20:18.533Z,99648.35
2018-11-07T00:25:22.734Z,99654.36
2018-11-07T00:30:26.770Z,99662.89
2018-11-07T00:35:30.729Z,99655.44
2018-11-07T00:40:34.599Z,99654.91
2018-11-07T00:45:38.547Z,99645.71
2018-11-07T00:50:42.396Z,99643.29
2018-11-07T00:55:46.383Z,99643.16
2018-11-07T01:00:50.157Z,99649.18
2018-11-07T01:05:54.134Z,99646.50
2018-11-07T01:10:58.032Z,99652.04
2018-11-07T01:16:02.009Z,99659.05
2018-11-07T01:21:05.945Z,99650.83
2018-11-07T01:26:09.932Z,99648.92
2018-11-07T01:31:13.957Z,99652.28
2018-11-07T01:36:17.872Z,99652.83
2018-11-07T01:41:21.760Z,99653.44
2018-11-07T01:46:25.627Z,99660.20
2018-11-07T01:51:29.580Z,99665.78
2018-11-07T01:56:33.698Z,99659.25
2018-11-07T02:01:37.534Z,99652.70
2018-11-07T02:06:41.440Z,99646.47
2018-11-07T02:11:45.553Z,99643.27
2018-11-07T02:16:49.401Z,99643.37
2018-11-07T02:21:53.180Z,99640.69
2018-11-07T02:26:57.060Z,99641.94
2018-11-07T02:32:01.075Z,99641.79
2018-11-07T02:37:05.313Z,99646.38
2018-11-07T02:42:09.058Z,99642.30
2018-11-07T02:47:13.060Z,99638.98
2018-11-07T02:52:16.862Z,99638.75
2018-11-07T02:57:20.765Z,99635.89
2018-11-07T03:02:24.623Z,99634.39
2018-11-07T03:07:28.351Z,99635.41
2018-11-07T03:12:32.791Z,99646.16
2018-11-07T03:17:36.811Z,99647.88
2018-11-07T03:22:40.715Z,99652.19
2018-11-07T03:27:44.642Z,99658.83
2018-11-07T03:32:48.665Z,99658.23
2018-11-07T03:37:52.677Z,99657.63
2018-11-07T03:42:56.499Z,99658.52
2018-11-07T03:48:00.314Z,99657.83
2018-11-07T03:53:04.232Z,99651.80
2018-11-07T03:58:08.098Z,99655.77
2018-11-07T04:03:11.938Z,99659.75
2018-11-07T04:08:15.774Z,99664.75
2018-11-07T04:13:20.045Z,99666.59
2018-11-07T04:18:23.883Z,99668.73
2018-11-07T04:23:27.661Z,99665.87
2018-11-07T04:28:31.674Z,99663.30
2018-11-07T04:33:35.558Z,99671.36
2018-11-07T04:38:39.426Z,99670.20
2018-11-07T04:43:43.258Z,99678.61
2018-11-07T04:48:46.855Z,99678.20
2018-11-07T04:53:50.710Z,99680.21
2018-11-07T04:58:54.400Z,99685.01
2018-11-07T05:03:58.177Z,99686.03
2018-11-07T05:09:02.023Z,99692.16
2018-11-07T05:14:05.757Z,99697.56
2018-11-07T05:19:09.566Z,99695.31
2018-11-07T05:24:13.111Z,99695.52
2018-11-07T05:29:16.755Z,99688.08
2018-11-07T05:34:20.563Z,99695.53
2018-11-07T05:39:24.296Z,99706.45
2018-11-07T05:44:28.045Z,99717.40
2018-11-07T05:49:31.790Z,99713.66
2018-11-07T05:54:35.467Z,99724.44
2018-11-07T05:59:39.019Z,99722.80
2018-11-07T06:04:42.481Z,99725.56
2018-11-07T06:09:46.017Z,99711.11
2018-11-07T06:14:49.405Z,99715.62
2018-11-07T06:19:52.734Z,99731.34
2018-11-07T06:24:56.166Z,99733.11
2018-11-07T06:29:59.545Z,99739.17
2018-11-07T06:35:03.208Z,99745.12
2018-11-07T06:40:08.179Z,99741.75
2018-11-07T06:45:11.866Z,99743.55
2018-11-07T06:50:16.006Z,99755.02
2018-11-07T06:55:19.394Z,99751.88
2018-11-07T07:00:22.715Z,99765.11
2018-11-07T07:05:26.102Z,99759.74
2018-11-07T07:10:29.446Z,99762.01
2018-11-07T07:15:33.275Z,99753.83
2018-11-07T07:20:36.688Z,99759.31
2018-11-07T07:25:40.099Z,99759.77
2018-11-07T07:30:43.435Z,99762.73
2018-11-07T07:35:46.759Z,99778.69
2018-11-07T07:40:50.100Z,99776.89
2018-11-07T07:45:53.446Z,99772.70
2018-11-07T07:50:56.838Z,99779.98
2018-11-07T07:56:00.366Z,99784.22
2018-11-07T08:01:03.783Z,99791.97
2018-11-07T08:06:07.102Z,99787.39
2018-11-07T08:11:10.478Z,99796.99
2018-11-07T08:16:13.941Z,99793.70
2018-11-07T08:21:17.292Z,99792.98
2018-11-07T08:26:20.633Z,99800.50
2018-11-07T08:31:24.040Z,99797.66
2018-11-07T08:36:27.464Z,99802.53
2018-11-07T08:41:30.877Z,99797.56
2018-11-07T08:46:34.259Z,99791.09
2018-11-07T08:51:37.583Z,99791.66
2018-11-07T08:56:41.071Z,99789.19
2018-11-07T09:01:44.404Z,99795.00
2018-11-07T09:06:48.267Z,99804.07
2018-11-07T09:11:52.068Z,99803.58
2018-11-07T09:16:55.731Z,99807.09
2018-11-07T09:21:59.524Z,99808.66
2018-11-07T09:27:03.545Z,99829.38
2018-11-07T09:32:07.239Z,99816.09
2018-11-07T09:37:10.975Z,99831.47
2018-11-07T09:42:14.686Z,99827.41
2018-11-07T09:47:19.265Z,99822.34
2018-11-07T09:52:23.653Z,99824.20
2018-11-07T09:57:28.263Z,99816.12
2018-11-07T10:02:32.814Z,99820.41
2018-11-07T10:07:37.289Z,99834.96
2018-11-07T10:12:41.645Z,99834.27
2018-11-07T10:17:45.409Z,99834.95
2018-11-07T10:22:49.370Z,99827.09
2018-11-07T10:27:54.060Z,99834.59
2018-11-07T10:32:57.359Z,99818.04
2018-11-07T10:38:01.009Z,99824.89
2018-11-07T10:43:04.218Z,99823.63
2018-11-07T10:48:07.538Z,99822.54
2018-11-07T10:53:10.928Z,99820.91
2018-11-07T10:58:15.116Z,99818.73
2018-11-07T11:03:24.393Z,99829.53
2018-11-07T11:08:28.811Z,99830.66
2018-11-07T11:13:33.100Z,99829.36
2018-11-07T11:18:37.669Z,99830.11
2018-11-07T11:23:43.028Z,99839.11
2018-11-07T11:28:47.421Z,99831.46
2018-11-07T11:33:50.975Z,99819.83
2018-11-07T11:38:54.370Z,99822.84
2018-11-07T11:43:57.698Z,99818.87
2018-11-07T11:49:01.007Z,99824.08
2018-11-07T11:54:04.371Z,99837.17
2018-11-07T11:59:07.883Z,99835.03
2018-11-07T12:04:11.097Z,99832.64
2018-11-07T12:09:16.123Z,99833.99
2018-11-07T12:14:19.538Z,99831.91
2018-11-07T12:19:22.872Z,99834.30
2018-11-07T12:24:26.177Z,99828.56
2018-11-07T12:29:29.589Z,99825.34
2018-11-07T12:34:33.389Z,99817.85
2018-11-07T12:39:36.694Z,99808.45
2018-11-07T12:44:40.092Z,99809.98
2018-11-07T12:49:43.586Z,99819.44
2018-11-07T12:54:47.018Z,99804.79
2018-11-07T12:59:50.543Z,99815.31
2018-11-07T13:04:53.883Z,99812.94
2018-11-07T13:09:57.223Z,99823.11
2018-11-07T13:15:00.665Z,99831.16
2018-11-07T13:20:04.686Z,99833.19
2018-11-07T13:25:09.688Z,99834.84
2018-11-07T13:30:15.042Z,99833.55
2018-11-07T13:35:19.068Z,99835.63
2018-11-07T13:40:23.759Z,99832.77
2018-11-07T13:45:27.177Z,99832.19
2018-11-07T13:50:30.557Z,99825.56
2018-11-07T13:55:33.986Z,99827.14
2018-11-07T14:00:37.395Z,99836.95
2018-11-07T14:05:40.988Z,99838.30
2018-11-07T14:10:44.174Z,99853.05
2018-11-07T14:15:47.706Z,99847.20
2018-11-07T14:20:51.035Z,99847.83
2018-11-07T14:25:54.430Z,99849.40
2018-11-07T14:30:57.832Z,99855.05
2018-11-07T14:36:01.337Z,99852.83
2018-11-07T14:41:05.169Z,99857.58
2018-11-07T14:46:09.082Z,99846.48
2018-11-07T14:51:12.538Z,99851.70
2018-11-07T14:56:16.075Z,99852.30
2018-11-07T15:01:19.631Z,99848.73
2018-11-07T15:06:23.255Z,99842.95
2018-11-07T15:11:26.632Z,99846.41
2018-11-07T15:16:29.999Z,99851.79
2018-11-07T15:21:33.328Z,99853.30
2018-11-07T15:26:36.764Z,99849.70
2018-11-07T15:31:40.142Z,99846.55
2018-11-07T15:36:43.492Z,99845.42
2018-11-07T15:41:46.958Z,99850.64
2018-11-07T15:46:50.575Z,99853.75
2018-11-07T15:51:56.056Z,99850.83
2018-11-07T15:56:59.498Z,99859.44
2018-11-07T16:02:03.123Z,99864.42
2018-11-07T16:07:06.662Z,99871.40
2018-11-07T16:12:10.211Z,99883.39
2018-11-07T16:17:14.531Z,99888.68
2018-11-07T16:22:19.051Z,99895.11
2018-11-07T16:27:23.493Z,99900.72
2018-11-07T16:32:27.391Z,99905.95
2018-11-07T16:37:32.560Z,99907.53
2018-11-07T16:42:36.335Z,99919.27
2018-11-07T16:47:40.934Z,99917.97
2018-11-07T16:52:44.719Z,99916.77
2018-11-07T16:57:48.127Z,99921.36
2018-11-07T17:02:51.605Z,99916.56
2018-11-07T17:07:54.979Z,99923.45
2018-11-07T17:12:58.431Z,99937.70
2018-11-07T17:18:01.810Z,99940.81
2018-11-07T17:23:05.396Z,99944.59
2018-11-07T17:28:09.031Z,99938.75
2018-11-07T17:33:12.861Z,99935.81
2018-11-07T17:38:16.826Z,99933.33
2018-11-07T17:43:20.584Z,99931.91
2018-11-07T17:48:24.191Z,99932.33
2018-11-07T17:53:27.558Z,99938.15
2018-11-07T17:58:30.899Z,99943.60
2018-11-07T18:03:34.759Z,99935.09
2018-11-07T18:08:38.523Z,99943.48
2018-11-07T18:13:42.101Z,99950.64
2018-11-07T18:18:45.697Z,99950.13
2018-11-07T18:23:49.052Z,99952.88
2018-11-07T18:28:52.526Z,99956.56
2018-11-07T18:33:56.710Z,99957.53
2018-11-07T18:39:00.234Z,99964.46
2018-11-07T18:44:04.343Z,99963.08
2018-11-07T18:49:08.529Z,99967.84
2018-11-07T18:54:12.277Z,99979.38
2018-11-07T18:59:16.186Z,99986.92
2018-11-07T19:04:20.238Z,99997.73
2018-11-07T19:09:24.419Z,99995.17
2018-11-07T19:14:27.864Z,100000.36
2018-11-07T19:19:31.221Z,100006.39
2018-11-07T19:24:34.754Z,100010.76
2018-11-07T19:29:38.065Z,100025.16
2018-11-07T19:34:41.457Z,100031.80
2018-11-07T19:39:44.964Z,100037.44
2018-11-07T19:44:48.329Z,100030.27
2018-11-07T19:49:51.655Z,100037.48
2018-11-07T19:54:55.042Z,100044.95
2018-11-07T19:59:58.394Z,100048.11
2018-11-07T20:05:01.733Z,100056.59
2018-11-07T20:10:11.204Z,100064.20
2018-11-07T20:15:15.631Z,100069.17
2018-11-07T20:20:19.070Z,100070.13
2018-11-07T20:25:22.419Z,100071.52
2018-11-07T20:30:25.718Z,100081.59
2018-11-07T20:35:29.121Z,100081.06
2018-11-07T20:40:32.395Z,100079.67
2018-11-07T20:45:35.951Z,100086.25
2018-11-07T20:50:39.314Z,100089.66
2018-11-07T20:55:42.651Z,100095.42
2018-11-07T21:00:45.974Z,100105.03
2018-11-07T21:05:49.443Z,100103.65
2018-11-07T21:10:53.109Z,100103.49
2018-11-07T21:15:56.539Z,100098.80
2018-11-07T21:21:00.047Z,100112.59
2018-11-07T21:26:03.424Z,100123.53
2018-11-07T21:31:06.828Z,100118.78
2018-11-07T21:36:10.158Z,100123.08
2018-11-07T21:41:14.195Z,100140.74
2018-11-07T21:46:17.913Z,100142.08
2018-11-07T21:51:21.510Z,100145.09
2018-11-07T21:56:25.106Z,100143.57
2018-11-07T22:01:28.648Z,100141.31
2018-11-07T22:06:31.998Z,100152.81
2018-11-07T22:11:35.387Z,100158.07
2018-11-07T22:16:39.270Z,100161.60
2018-11-07T22:21:42.627Z,100161.18
2018-11-07T22:26:46.085Z,100165.48
2018-11-07T22:31:49.468Z,100170.84
2018-11-07T22:36:52.911Z,100178.70
2018-11-07T22:41:56.345Z,100176.91
2018-11-07T22:46:59.665Z,100169.39
2018-11-07T22:52:03.009Z,100173.42
2018-11-07T22:57:06.986Z,100183.06
2018-11-07T23:02:10.391Z,100183.36
2018-11-07T23:07:13.771Z,100189.73
2018-11-07T23:12:17.177Z,100199.34
2018-11-07T23:17:20.498Z,100199.53
2018-11-07T23:22:23.822Z,100200.73
2018-11-07T23:27:27.148Z,100204.53
2018-11-07T23:32:30.458Z,100203.20
2018-11-07T23:37:33.931Z,100216.56
2018-11-07T23:42:37.378Z,100223.63
2018-11-07T23:47:40.779Z,100218.47
2018-11-07T23:52:47.231Z,100218.02
2018-11-07T23:57:51.261Z,100239.28
